createdAt,value
2019-03-06T00:00:08.494Z,55.5
2019-03-06T00:15:09.533Z,56.4
2019-03-06T00:30:09.530Z,55.8
2019-03-06T00:45:09.532Z,55.7
2019-03-06T01:00:09.661Z,56.4
2019-03-06T01:17:20.711Z,58.4
2019-03-06T01:32:21.869Z,60.7
2019-03-06T01:45:12.718Z,61.7
2019-03-06T02:00:12.881Z,61.5
2019-03-06T02:17:23.351Z,61.7
2019-03-06T02:32:14.058Z,61.7
2019-03-06T02:47:13.143Z,62.1
2019-03-06T03:00:03.371Z,62
2019-03-06T03:15:04.421Z,61.4
2019-03-06T03:32:14.463Z,61.6
2019-03-06T03:45:04.383Z,62
2019-03-06T04:02:14.636Z,63
2019-03-06T04:15:04.394Z,63.6
2019-03-06T04:30:04.739Z,65.1
2019-03-06T04:45:04.650Z,64.4
2019-03-06T05:00:04.942Z,65.2
2019-03-06T05:17:16.125Z,65.2
2019-03-06T05:32:17.242Z,65
2019-03-06T05:45:06.329Z,65.8
2019-03-06T06:00:06.251Z,66.2
2019-03-06T06:15:07.992Z,65.7
2019-03-06T06:30:07.719Z,65.6
2019-03-06T06:45:08.499Z,66.1
2019-03-06T07:00:08.596Z,68.2
2019-03-06T07:15:09.128Z,67.6
2019-03-06T07:32:20.065Z,68.2
2019-03-06T07:47:21.179Z,68.9
2019-03-06T08:02:20.296Z,68.7
2019-03-06T08:15:03.443Z,68.4
2019-03-06T08:30:03.624Z,66.1
2019-03-06T09:02:18.587Z,57.3
2019-03-06T09:17:23.764Z,56.1
2019-03-06T09:32:14.746Z,57.8
2019-03-06T09:45:04.749Z,56.2
2019-03-06T10:00:04.986Z,53.9
2019-03-06T10:32:17.108Z,47
2019-03-06T10:45:07.095Z,46.2
2019-03-06T11:00:07.616Z,41.7
2019-03-06T11:19:31.406Z,37.6
2019-03-06T11:30:04.106Z,41.4
2019-03-06T11:47:14.512Z,39.8
2019-03-06T12:00:09.794Z,40
2019-03-06T12:17:22.912Z,35.2
2019-03-06T12:30:09.288Z,36.6
2019-03-06T12:45:13.174Z,36.3
2019-03-06T13:00:04.786Z,29.2
2019-03-06T13:17:17.155Z,30.6
2019-03-06T13:32:18.279Z,35.7
2019-03-06T13:45:10.834Z,35.7
2019-03-06T14:00:13.405Z,33.7
2019-03-06T14:17:15.716Z,32.2
2019-03-06T14:30:05.716Z,33.8
2019-03-06T14:45:07.749Z,35
2019-03-06T15:00:03.470Z,34.8
2019-03-06T15:15:09.080Z,40.8
2019-03-06T15:30:10.953Z,43.8
2019-03-06T15:45:11.193Z,45.3
2019-03-06T16:02:21.288Z,48.7
2019-03-06T16:17:22.392Z,48.9
2019-03-06T16:32:15.585Z,46.2
2019-03-06T16:45:07.024Z,53.5
2019-03-06T17:00:07.743Z,49.4
2019-03-06T17:15:09.442Z,51
2019-03-06T17:32:15.752Z,51.8
2019-03-06T17:47:18.873Z,52.6
2019-03-06T18:00:17.483Z,52.3
2019-03-06T18:15:10.165Z,54.3
2019-03-06T18:32:12.033Z,54.6
2019-03-06T18:47:15.165Z,55.4
2019-03-06T19:02:18.340Z,55.1
2019-03-06T19:15:10.410Z,57
2019-03-06T19:30:03.416Z,57
2019-03-06T19:45:07.342Z,60.8
2019-03-06T20:00:08.998Z,60.1
2019-03-06T20:15:09.134Z,62.1
2019-03-06T20:32:18.879Z,60.7
2019-03-06T20:47:20.010Z,62.1
2019-03-06T21:02:19.134Z,60.8
2019-03-06T21:15:09.730Z,59.7
2019-03-06T21:32:19.379Z,62.1
2019-03-06T21:47:20.477Z,60.1
2019-03-06T22:00:10.977Z,59.3
2019-03-06T22:15:06.088Z,60.4
2019-03-06T22:32:15.565Z,63.1
2019-03-06T22:45:05.021Z,62.7
2019-03-06T23:00:05.069Z,61.2
2019-03-06T23:17:14.773Z,61.7
2019-03-06T23:30:05.199Z,64.2
2019-03-06T23:45:05.382Z,65
